createdAt,value
2022-10-21T00:00:40.449Z,8.00
2022-10-21T00:03:07.148Z,7.32
2022-10-21T00:05:33.839Z,7.00
2022-10-21T00:08:00.710Z,7.25
2022-10-21T00:10:27.585Z,7.93
2022-10-21T00:12:54.306Z,6.05
2022-10-21T00:15:21.160Z,6.45
2022-10-21T00:17:47.870Z,7.80
2022-10-21T00:20:14.819Z,7.25
2022-10-21T00:22:41.771Z,7.07
2022-10-21T00:25:08.832Z,8.43
2022-10-21T00:27:36.282Z,7.18
2022-10-21T00:30:06.574Z,7.00
2022-10-21T00:32:33.914Z,7.68
2022-10-21T00:35:00.676Z,7.43
2022-10-21T00:37:30.551Z,6.60
2022-10-21T00:39:57.792Z,7.72
2022-10-21T00:42:33.599Z,7.82
2022-10-21T00:45:22.348Z,7.38
2022-10-21T00:47:49.163Z,7.45
2022-10-21T00:50:59.056Z,7.55
2022-10-21T00:53:26.217Z,7.72
2022-10-21T00:55:58.734Z,6.03
2022-10-21T00:58:29.778Z,6.25
2022-10-21T01:01:00.223Z,6.88
2022-10-21T01:03:29.457Z,5.15
2022-10-21T01:05:59.202Z,6.97
2022-10-21T01:08:27.107Z,6.28
2022-10-21T01:10:54.065Z,6.25
2022-10-21T01:13:48.752Z,5.80
2022-10-21T01:16:56.278Z,5.72
2022-10-21T01:19:52.066Z,6.30
2022-10-21T01:22:52.278Z,5.97
2022-10-21T01:25:31.166Z,4.90
2022-10-21T01:28:19.517Z,6.65
2022-10-21T01:30:57.599Z,5.32
2022-10-21T01:33:50.061Z,7.07
2022-10-21T01:36:28.969Z,5.90
2022-10-21T01:39:00.001Z,7.15
2022-10-21T01:41:37.071Z,5.40
2022-10-21T01:44:19.037Z,7.45
2022-10-21T01:46:50.978Z,7.57
2022-10-21T01:49:33.374Z,7.05
2022-10-21T01:52:02.640Z,5.93
2022-10-21T01:54:35.485Z,6.13
2022-10-21T01:57:04.846Z,5.60
2022-10-21T01:59:32.783Z,6.15
2022-10-21T02:02:02.376Z,6.25
2022-10-21T02:04:31.600Z,7.38
2022-10-21T02:06:58.337Z,6.25
2022-10-21T02:09:25.368Z,7.47
2022-10-21T02:11:56.781Z,5.50
2022-10-21T02:14:33.922Z,5.72
2022-10-21T02:17:01.009Z,14.00
2022-10-21T02:19:28.574Z,12.80
2022-10-21T02:21:58.604Z,13.85
2022-10-21T02:27:14.245Z,13.05
2022-10-21T02:29:44.364Z,12.68
2022-10-21T02:32:39.696Z,14.95
2022-10-21T02:35:15.642Z,15.43
2022-10-21T02:38:02.386Z,14.45
2022-10-21T02:40:40.644Z,16.92
2022-10-21T02:43:13.925Z,15.80
2022-10-21T02:45:41.108Z,16.15
2022-10-21T02:48:08.034Z,15.27
2022-10-21T02:50:34.827Z,14.95
2022-10-21T02:53:01.560Z,12.60
2022-10-21T02:55:28.292Z,12.18
2022-10-21T02:57:55.113Z,9.93
2022-10-21T03:00:21.844Z,8.40
2022-10-21T03:02:48.619Z,7.70
2022-10-21T03:05:15.580Z,8.07
2022-10-21T03:07:42.338Z,7.55
2022-10-21T03:10:09.651Z,8.38
2022-10-21T03:12:36.551Z,6.93
2022-10-21T03:15:03.906Z,7.28
2022-10-21T03:17:30.642Z,7.78
2022-10-21T03:19:57.488Z,6.88
2022-10-21T03:22:24.248Z,7.50
2022-10-21T03:24:50.983Z,6.50
2022-10-21T03:27:17.833Z,6.47
2022-10-21T03:29:44.505Z,7.93
2022-10-21T03:32:11.194Z,7.57
2022-10-21T03:34:37.984Z,6.72
2022-10-21T03:37:04.669Z,7.45
2022-10-21T03:39:31.365Z,6.65
2022-10-21T03:41:58.106Z,8.90
2022-10-21T03:44:24.800Z,8.35
2022-10-21T03:46:51.501Z,6.90
2022-10-21T03:49:21.273Z,7.47
2022-10-21T03:51:48.555Z,9.40
2022-10-21T03:54:15.612Z,7.55
2022-10-21T03:56:42.592Z,7.75
2022-10-21T03:59:09.644Z,7.45
2022-10-21T04:01:37.293Z,9.70
2022-10-21T04:04:04.459Z,7.20
2022-10-21T04:06:31.266Z,8.80
2022-10-21T04:08:58.076Z,9.35
2022-10-21T04:11:24.909Z,7.65
2022-10-21T04:13:51.691Z,8.30
2022-10-21T04:16:21.002Z,8.45
2022-10-21T04:18:48.537Z,8.25
2022-10-21T04:21:15.643Z,9.15
2022-10-21T04:23:42.449Z,9.75
2022-10-21T04:26:09.777Z,8.45
2022-10-21T04:28:36.775Z,10.60
2022-10-21T04:31:04.444Z,8.60
2022-10-21T04:33:31.414Z,9.38
2022-10-21T04:36:01.150Z,8.02
2022-10-21T04:38:28.469Z,9.02
2022-10-21T04:40:57.062Z,7.90
2022-10-21T04:43:23.893Z,6.70
2022-10-21T04:45:50.600Z,6.20
2022-10-21T04:48:17.534Z,8.02
2022-10-21T04:50:44.601Z,7.55
2022-10-21T04:53:11.297Z,6.75
2022-10-21T04:55:40.896Z,7.05
2022-10-21T04:58:07.616Z,7.38
2022-10-21T05:00:34.392Z,6.85
2022-10-21T05:03:01.296Z,6.68
2022-10-21T05:05:28.189Z,6.07
2022-10-21T05:07:54.930Z,6.45
2022-10-21T05:10:22.643Z,6.25
2022-10-21T05:12:49.327Z,7.75
2022-10-21T05:15:16.132Z,6.40
2022-10-21T05:17:43.019Z,7.97
2022-10-21T05:20:10.526Z,7.07
2022-10-21T05:22:37.534Z,6.88
2022-10-21T05:25:04.974Z,6.03
2022-10-21T05:27:31.729Z,7.90
2022-10-21T05:29:58.562Z,8.18
2022-10-21T05:32:25.570Z,9.18
2022-10-21T05:34:52.287Z,6.20
2022-10-21T05:37:18.992Z,6.45
2022-10-21T05:39:45.923Z,10.15
2022-10-21T05:42:12.626Z,5.45
2022-10-21T05:44:39.312Z,7.18
2022-10-21T05:47:06.254Z,9.18
2022-10-21T05:49:32.983Z,6.78
2022-10-21T05:51:59.780Z,6.38
2022-10-21T05:54:26.522Z,5.85
2022-10-21T05:56:56.278Z,8.48
2022-10-21T05:59:23.115Z,6.60
2022-10-21T06:01:49.958Z,6.28
2022-10-21T06:04:16.634Z,6.75
2022-10-21T06:06:43.357Z,8.02
2022-10-21T06:09:10.195Z,6.45
2022-10-21T06:11:37.082Z,7.03
2022-10-21T06:14:03.833Z,8.93
2022-10-21T06:16:30.585Z,7.68
2022-10-21T06:18:57.447Z,6.05
2022-10-21T06:21:24.136Z,8.07
2022-10-21T06:23:54.923Z,5.75
2022-10-21T06:26:22.902Z,8.07
2022-10-21T06:28:49.765Z,8.52
2022-10-21T06:31:19.169Z,8.40
2022-10-21T06:33:46.980Z,6.88
2022-10-21T06:36:14.228Z,5.85
2022-10-21T06:38:41.518Z,7.10
2022-10-21T06:41:13.364Z,6.50
2022-10-21T06:43:41.469Z,6.20
2022-10-21T06:46:14.528Z,6.38
2022-10-21T06:48:41.975Z,7.78
2022-10-21T06:51:12.160Z,6.80
2022-10-21T06:53:39.446Z,6.30
2022-10-21T06:56:08.258Z,5.47
2022-10-21T06:58:37.132Z,5.78
2022-10-21T07:01:27.242Z,6.95
2022-10-21T07:03:59.147Z,5.88
2022-10-21T07:06:26.185Z,5.97
2022-10-21T07:09:00.211Z,5.93
2022-10-21T07:11:28.599Z,5.55
2022-10-21T07:13:56.011Z,6.80
2022-10-21T07:16:28.569Z,6.88
2022-10-21T07:18:55.928Z,6.00
2022-10-21T07:21:25.997Z,7.65
2022-10-21T07:26:26.674Z,8.13
2022-10-21T07:28:55.427Z,7.03
2022-10-21T07:31:22.223Z,6.90
2022-10-21T07:33:49.341Z,10.15
2022-10-21T07:36:23.428Z,7.50
2022-10-21T07:38:51.839Z,6.65
2022-10-21T07:41:20.337Z,4.60
2022-10-21T07:43:47.703Z,7.30
2022-10-21T07:46:14.553Z,7.55
2022-10-21T07:48:41.247Z,6.00
2022-10-21T07:51:10.950Z,7.43
2022-10-21T07:53:38.672Z,8.60
2022-10-21T07:56:17.484Z,6.80
2022-10-21T07:58:47.064Z,6.75
2022-10-21T08:01:15.785Z,6.05
2022-10-21T08:03:42.964Z,7.50
2022-10-21T08:06:11.933Z,5.97
2022-10-21T08:08:39.660Z,7.05
2022-10-21T08:11:07.851Z,7.28
2022-10-21T08:13:35.113Z,7.63
2022-10-21T08:16:04.934Z,8.13
2022-10-21T08:18:32.373Z,7.30
2022-10-21T08:20:59.124Z,6.68
2022-10-21T08:23:26.593Z,7.70
2022-10-21T08:25:55.796Z,7.45
2022-10-21T08:28:24.254Z,7.43
2022-10-21T08:30:51.502Z,7.20
2022-10-21T08:33:18.365Z,8.57
2022-10-21T08:35:45.244Z,6.20
2022-10-21T08:38:12.283Z,5.90
2022-10-21T08:40:46.403Z,6.88
2022-10-21T08:43:34.650Z,6.40
2022-10-21T08:46:08.406Z,6.55
2022-10-21T08:48:43.947Z,6.47
2022-10-21T08:51:36.179Z,7.93
2022-10-21T08:54:12.418Z,8.10
2022-10-21T08:56:39.348Z,7.47
2022-10-21T08:59:22.863Z,6.30
2022-10-21T09:02:19.973Z,5.80
2022-10-21T09:04:54.613Z,7.38
2022-10-21T09:07:30.256Z,7.43
2022-10-21T09:10:08.800Z,6.18
2022-10-21T09:12:53.854Z,7.35
2022-10-21T09:15:51.304Z,7.65
2022-10-21T09:18:33.114Z,6.47
2022-10-21T09:21:05.985Z,5.28
2022-10-21T09:23:51.787Z,7.10
2022-10-21T09:26:36.321Z,6.30
2022-10-21T09:29:45.389Z,7.25
2022-10-21T09:32:15.848Z,6.67
2022-10-21T09:35:05.949Z,5.95
2022-10-21T09:40:28.743Z,6.70
2022-10-21T09:42:59.171Z,5.55
2022-10-21T09:45:35.405Z,5.85
2022-10-21T09:48:24.267Z,6.10
2022-10-21T09:51:06.905Z,7.20
2022-10-21T09:53:38.992Z,5.25
2022-10-21T09:56:17.702Z,4.75
2022-10-21T09:59:07.172Z,6.68
2022-10-21T10:01:36.228Z,4.35
2022-10-21T10:04:11.230Z,5.85
2022-10-21T10:06:44.336Z,6.70
2022-10-21T10:09:31.752Z,5.68
2022-10-21T10:12:01.187Z,5.15
2022-10-21T10:14:32.631Z,4.47
2022-10-21T10:17:34.192Z,6.13
2022-10-21T10:20:21.421Z,5.70
2022-10-21T10:23:00.400Z,9.23
2022-10-21T10:25:33.241Z,6.80
2022-10-21T10:28:17.476Z,6.72
2022-10-21T10:30:44.120Z,8.43
2022-10-21T10:33:20.107Z,6.82
2022-10-21T10:35:53.146Z,7.78
2022-10-21T10:38:26.425Z,8.38
2022-10-21T10:40:56.354Z,7.53
2022-10-21T10:43:30.703Z,8.88
2022-10-21T10:46:03.748Z,6.97
2022-10-21T10:48:46.861Z,9.15
2022-10-21T10:51:34.731Z,9.25
2022-10-21T10:54:01.866Z,9.68
2022-10-21T10:57:03.434Z,6.88
2022-10-21T10:59:33.127Z,8.25
2022-10-21T11:07:44.339Z,6.47
2022-10-21T11:10:30.534Z,5.72
2022-10-21T11:12:58.461Z,6.28
2022-10-21T11:15:49.809Z,7.30
2022-10-21T11:18:31.245Z,7.40
2022-10-21T11:21:10.140Z,7.65
2022-10-21T11:23:57.640Z,8.25
2022-10-21T11:26:55.368Z,5.78
2022-10-21T11:29:44.065Z,8.23
2022-10-21T11:32:40.820Z,5.97
2022-10-21T11:35:35.398Z,6.82
2022-10-21T11:38:34.691Z,6.75
2022-10-21T11:41:10.254Z,8.25
2022-10-21T11:44:14.833Z,7.00
2022-10-21T11:47:14.245Z,7.70
2022-10-21T11:50:01.001Z,20.42
2022-10-21T11:52:42.659Z,19.38
2022-10-21T11:55:40.981Z,23.30
2022-10-21T11:58:16.550Z,12.65
2022-10-21T12:01:25.048Z,8.32
2022-10-21T12:03:59.438Z,9.68
2022-10-21T12:06:45.793Z,7.25
2022-10-21T12:09:42.130Z,8.77
2022-10-21T12:12:27.477Z,5.93
2022-10-21T12:15:02.757Z,8.43
2022-10-21T12:17:34.352Z,7.60
2022-10-21T12:20:06.633Z,5.45
2022-10-21T12:22:34.886Z,7.53
2022-10-21T12:25:17.199Z,6.85
2022-10-21T12:27:52.669Z,9.00
2022-10-21T12:30:32.782Z,7.75
2022-10-21T12:33:17.831Z,6.45
2022-10-21T12:35:55.003Z,6.05
2022-10-21T12:38:44.119Z,8.15
2022-10-21T12:41:30.838Z,8.20
2022-10-21T12:44:03.914Z,7.57
2022-10-21T12:46:44.154Z,6.53
2022-10-21T12:49:10.926Z,6.43
2022-10-21T12:51:38.408Z,7.75
2022-10-21T12:54:17.835Z,6.50
2022-10-21T12:56:49.349Z,5.93
2022-10-21T12:59:40.840Z,5.65
2022-10-21T13:02:10.325Z,6.32
2022-10-21T13:04:37.012Z,6.50
2022-10-21T13:07:15.806Z,6.50
2022-10-21T13:09:51.713Z,6.05
2022-10-21T13:12:24.615Z,6.05
2022-10-21T13:15:01.600Z,5.50
2022-10-21T13:17:47.528Z,6.35
2022-10-21T13:20:20.380Z,7.15
2022-10-21T13:22:49.779Z,8.13
2022-10-21T13:25:16.598Z,6.32
2022-10-21T13:27:48.664Z,7.38
2022-10-21T13:30:31.231Z,6.68
2022-10-21T13:33:06.892Z,9.23
2022-10-21T13:35:53.791Z,6.93
2022-10-21T13:38:29.689Z,7.53
2022-10-21T13:41:05.155Z,6.70
2022-10-21T13:43:46.418Z,6.40
2022-10-21T13:46:13.178Z,6.47
2022-10-21T13:48:42.566Z,7.60
2022-10-21T13:51:19.690Z,8.27
2022-10-21T13:53:47.379Z,6.53
2022-10-21T13:56:28.549Z,7.40
2022-10-21T13:58:55.522Z,6.10
2022-10-21T14:01:26.147Z,5.68
2022-10-21T14:03:55.108Z,6.72
2022-10-21T14:06:32.172Z,6.77
2022-10-21T14:09:08.273Z,6.03
2022-10-21T14:11:43.551Z,6.05
2022-10-21T14:14:15.365Z,6.25
2022-10-21T14:16:47.763Z,7.40
2022-10-21T14:19:21.772Z,7.10
2022-10-21T14:21:52.599Z,8.38
2022-10-21T14:24:34.433Z,7.80
2022-10-21T14:27:02.916Z,7.72
2022-10-21T14:29:33.293Z,7.40
2022-10-21T14:32:01.211Z,8.98
2022-10-21T14:34:31.121Z,7.40
2022-10-21T14:39:29.764Z,8.02
2022-10-21T14:42:06.865Z,7.05
2022-10-21T14:44:34.139Z,7.03
2022-10-21T14:47:01.028Z,8.82
2022-10-21T14:49:34.777Z,8.48
2022-10-21T14:52:08.547Z,8.52
2022-10-21T14:54:45.278Z,7.07
2022-10-21T14:57:27.116Z,7.60
2022-10-21T14:59:54.784Z,8.90
2022-10-21T15:02:28.299Z,7.20
2022-10-21T15:05:00.678Z,6.25
2022-10-21T15:07:34.131Z,7.63
2022-10-21T15:10:04.006Z,6.75
2022-10-21T15:15:48.354Z,7.28
2022-10-21T15:18:32.719Z,7.50
2022-10-21T15:21:04.287Z,6.57
2022-10-21T15:23:35.772Z,7.20
2022-10-21T15:26:15.884Z,6.38
2022-10-21T15:28:43.394Z,6.93
2022-10-21T15:31:24.032Z,6.35
2022-10-21T15:33:52.805Z,6.53
2022-10-21T15:36:19.622Z,7.60
2022-10-21T15:38:47.394Z,7.25
2022-10-21T15:41:21.298Z,6.30
2022-10-21T15:43:54.443Z,6.10
2022-10-21T15:46:21.123Z,8.70
2022-10-21T15:48:47.936Z,6.30
2022-10-21T15:51:14.749Z,6.78
2022-10-21T15:53:44.485Z,6.55
2022-10-21T15:56:15.621Z,7.18
2022-10-21T15:58:42.536Z,6.95
2022-10-21T16:01:14.367Z,6.25
2022-10-21T16:03:41.829Z,7.97
2022-10-21T16:06:20.204Z,6.43
2022-10-21T16:08:48.363Z,6.65
2022-10-21T16:11:25.533Z,7.20
2022-10-21T16:14:01.901Z,6.75
2022-10-21T16:16:29.133Z,8.02
2022-10-21T16:18:56.320Z,6.82
2022-10-21T16:21:23.525Z,8.65
2022-10-21T16:23:50.410Z,7.60
2022-10-21T16:26:22.684Z,7.35
2022-10-21T16:28:51.343Z,8.07
2022-10-21T16:31:18.749Z,7.47
2022-10-21T16:33:45.710Z,8.15
2022-10-21T16:36:17.281Z,6.38
2022-10-21T16:38:45.823Z,7.30
2022-10-21T16:41:18.122Z,6.63
2022-10-21T16:43:45.678Z,5.57
2022-10-21T16:46:37.718Z,6.47
2022-10-21T16:49:12.132Z,7.45
2022-10-21T16:51:42.986Z,5.65
2022-10-21T16:56:37.481Z,5.90
2022-10-21T16:59:04.401Z,6.50
2022-10-21T17:01:31.195Z,5.60
2022-10-21T17:03:58.017Z,8.63
2022-10-21T17:06:26.645Z,8.90
2022-10-21T17:08:56.366Z,6.32
2022-10-21T17:11:38.455Z,7.75
2022-10-21T17:14:08.154Z,7.40
2022-10-21T17:16:34.998Z,6.22
2022-10-21T17:19:01.979Z,5.63
2022-10-21T17:21:31.928Z,6.93
2022-10-21T17:26:27.434Z,7.07
2022-10-21T17:28:54.325Z,6.93
2022-10-21T17:31:26.657Z,7.80
2022-10-21T17:33:56.513Z,7.10
2022-10-21T17:36:23.376Z,6.50
2022-10-21T17:38:50.447Z,6.78
2022-10-21T17:41:20.576Z,6.15
2022-10-21T17:43:48.408Z,7.75
2022-10-21T17:46:18.706Z,7.38
2022-10-21T17:48:50.156Z,8.27
2022-10-21T17:51:16.965Z,6.72
2022-10-21T17:53:43.685Z,8.23
2022-10-21T17:56:12.361Z,6.43
2022-10-21T17:58:39.098Z,9.38
2022-10-21T18:01:11.214Z,9.52
2022-10-21T18:03:38.482Z,10.50
2022-10-21T18:06:11.271Z,8.90
2022-10-21T18:08:38.605Z,10.07
2022-10-21T18:11:10.448Z,11.63
2022-10-21T18:13:37.744Z,7.85
2022-10-21T18:16:07.550Z,10.40
2022-10-21T18:18:34.359Z,8.45
2022-10-21T18:21:11.034Z,8.63
2022-10-21T18:23:39.635Z,11.15
2022-10-21T18:26:09.469Z,9.85
2022-10-21T18:28:36.429Z,8.27
2022-10-21T18:31:04.294Z,14.00
2022-10-21T18:33:31.639Z,8.98
2022-10-21T18:36:09.169Z,8.98
2022-10-21T18:38:36.296Z,9.05
2022-10-21T18:41:19.468Z,8.40
2022-10-21T18:44:04.837Z,6.90
2022-10-21T18:46:31.934Z,9.70
2022-10-21T18:48:59.439Z,8.68
2022-10-21T18:51:26.486Z,8.13
2022-10-21T18:53:53.455Z,7.35
2022-10-21T18:56:21.837Z,7.07
2022-10-21T18:58:49.035Z,8.57
2022-10-21T19:01:16.793Z,7.65
2022-10-21T19:03:44.743Z,6.78
2022-10-21T19:06:28.922Z,7.82
2022-10-21T19:08:55.931Z,7.80
2022-10-21T19:11:22.705Z,8.43
2022-10-21T19:13:49.543Z,9.00
2022-10-21T19:16:16.287Z,9.48
2022-10-21T19:18:43.141Z,9.38
2022-10-21T19:21:10.070Z,8.75
2022-10-21T19:23:36.770Z,9.23
2022-10-21T19:26:05.931Z,10.38
2022-10-21T19:28:33.307Z,8.77
2022-10-21T19:31:00.254Z,7.57
2022-10-21T19:33:27.144Z,8.63
2022-10-21T19:35:53.997Z,9.93
2022-10-21T19:38:39.298Z,7.60
2022-10-21T19:41:10.400Z,8.13
2022-10-21T19:43:37.957Z,9.13
2022-10-21T19:46:06.845Z,7.53
2022-10-21T19:48:36.486Z,6.13
2022-10-21T19:51:04.662Z,7.05
2022-10-21T19:53:33.775Z,7.07
2022-10-21T19:56:05.707Z,6.50
2022-10-21T19:58:34.161Z,7.00
2022-10-21T20:01:10.557Z,8.07
2022-10-21T20:03:39.793Z,6.70
2022-10-21T20:08:44.010Z,7.55
2022-10-21T20:11:20.874Z,6.38
2022-10-21T20:13:50.504Z,7.53
2022-10-21T20:16:21.533Z,7.70
2022-10-21T20:18:48.460Z,8.07
2022-10-21T20:21:15.775Z,8.70
2022-10-21T20:23:43.351Z,7.68
2022-10-21T20:26:10.099Z,6.82
2022-10-21T20:28:37.733Z,7.75
2022-10-21T20:31:10.082Z,7.05
2022-10-21T20:33:40.216Z,7.53
2022-10-21T20:36:10.827Z,5.68
2022-10-21T20:38:37.890Z,7.13
2022-10-21T20:41:07.352Z,6.30
2022-10-21T20:43:35.185Z,8.20
2022-10-21T20:46:03.103Z,5.93
2022-10-21T20:48:29.929Z,7.15
2022-10-21T20:51:29.723Z,6.68
2022-10-21T20:53:59.560Z,6.80
2022-10-21T20:56:32.342Z,7.75
2022-10-21T20:59:00.054Z,6.22
2022-10-21T21:01:33.297Z,6.93
2022-10-21T21:04:05.017Z,6.20
2022-10-21T21:06:36.694Z,6.20
2022-10-21T21:11:50.465Z,5.35
2022-10-21T21:14:17.560Z,5.72
2022-10-21T21:16:44.281Z,5.55
2022-10-21T21:19:12.817Z,6.10
2022-10-21T21:21:40.235Z,7.05
2022-10-21T21:24:07.338Z,7.35
2022-10-21T21:26:37.499Z,5.47
2022-10-21T21:29:06.577Z,6.15
2022-10-21T21:31:35.513Z,8.20
2022-10-21T21:34:03.045Z,6.00
2022-10-21T21:36:29.935Z,6.03
2022-10-21T21:38:56.808Z,4.88
2022-10-21T21:41:25.472Z,5.63
2022-10-21T21:43:53.265Z,6.10
2022-10-21T21:46:24.544Z,6.55
2022-10-21T21:49:05.540Z,5.30
2022-10-21T21:51:34.480Z,6.22
2022-10-21T21:54:01.340Z,5.97
2022-10-21T21:56:28.753Z,6.28
2022-10-21T21:58:57.980Z,8.07
2022-10-21T22:01:28.208Z,7.38
2022-10-21T22:08:51.882Z,5.95
2022-10-21T22:11:22.276Z,6.68
2022-10-21T22:13:50.594Z,6.90
2022-10-21T22:16:18.826Z,6.28
2022-10-21T22:18:45.996Z,6.75
2022-10-21T22:21:15.810Z,6.60
2022-10-21T22:23:42.945Z,5.82
2022-10-21T22:26:11.308Z,6.63
2022-10-21T22:28:38.147Z,5.57
2022-10-21T22:31:08.523Z,6.40
2022-10-21T22:33:36.054Z,6.10
2022-10-21T22:36:04.029Z,5.90
2022-10-21T22:38:30.795Z,5.80
2022-10-21T22:40:59.308Z,5.82
2022-10-21T22:43:27.321Z,5.30
2022-10-21T22:46:01.159Z,5.53
2022-10-21T22:48:41.878Z,6.85
2022-10-21T22:51:08.612Z,4.63
2022-10-21T22:53:36.706Z,6.35
2022-10-21T22:56:04.369Z,5.95
2022-10-21T22:58:31.346Z,6.35
2022-10-21T23:00:58.801Z,5.38
2022-10-21T23:03:25.869Z,4.63
2022-10-21T23:05:52.691Z,8.35
2022-10-21T23:08:19.501Z,5.50
2022-10-21T23:10:49.500Z,5.00
2022-10-21T23:15:43.092Z,5.88
2022-10-21T23:18:10.177Z,6.00
2022-10-21T23:20:37.600Z,5.07
2022-10-21T23:23:04.530Z,5.88
2022-10-21T23:25:31.382Z,6.63
2022-10-21T23:27:58.367Z,5.65
2022-10-21T23:30:25.289Z,6.07
2022-10-21T23:32:52.231Z,5.07
2022-10-21T23:35:21.408Z,5.07
2022-10-21T23:37:48.121Z,6.68
2022-10-21T23:40:14.934Z,5.75
2022-10-21T23:42:42.940Z,7.78
2022-10-21T23:45:11.478Z,6.10
2022-10-21T23:47:39.909Z,5.60
2022-10-21T23:50:08.845Z,5.65
2022-10-21T23:52:36.413Z,5.65
2022-10-21T23:55:04.612Z,5.47
2022-10-21T23:57:31.327Z,5.72
2022-10-21T23:59:58.094Z,5.63
